createdAt,value
2018-05-31T00:00:23.576Z,20.7
2018-05-31T00:01:25.575Z,20.7
2018-05-31T00:02:27.592Z,20.7
2018-05-31T00:03:30.273Z,20.7
2018-05-31T00:04:32.278Z,20.6
2018-05-31T00:05:35.032Z,20.7
2018-05-31T00:06:37.043Z,20.7
2018-05-31T00:07:39.051Z,20.7
2018-05-31T00:08:41.051Z,20.6
2018-05-31T00:09:43.061Z,20.6
2018-05-31T00:10:45.066Z,20.5
2018-05-31T00:11:47.056Z,20.5
2018-05-31T00:12:49.065Z,20.5
2018-05-31T00:13:51.069Z,20.5
2018-05-31T00:14:53.074Z,20.5
2018-05-31T00:15:55.076Z,20.5
2018-05-31T00:16:57.082Z,20.5
2018-05-31T00:17:59.082Z,20.5
2018-05-31T00:19:01.099Z,20.5
2018-05-31T00:20:03.103Z,20.4
2018-05-31T00:21:05.107Z,20.3
2018-05-31T00:22:07.114Z,20.3
2018-05-31T00:23:09.114Z,20.4
2018-05-31T00:24:11.115Z,20.3
2018-05-31T00:25:13.178Z,20.3
2018-05-31T00:26:15.114Z,20.3
2018-05-31T00:27:17.130Z,20.2
2018-05-31T00:28:19.124Z,20.2
2018-05-31T00:29:21.131Z,20.2
2018-05-31T00:30:23.137Z,20.2
2018-05-31T00:31:25.132Z,20.1
2018-05-31T00:32:27.140Z,20.1
2018-05-31T00:33:29.138Z,20.1
2018-05-31T00:34:31.140Z,20
2018-05-31T00:35:33.147Z,19.9
2018-05-31T00:36:35.143Z,19.9
2018-05-31T00:37:37.152Z,20
2018-05-31T00:38:39.439Z,19.9
2018-05-31T00:39:41.442Z,19.9
2018-05-31T00:40:43.445Z,19.8
2018-05-31T00:41:45.830Z,19.8
2018-05-31T00:42:47.828Z,19.6
2018-05-31T00:43:49.842Z,19.8
2018-05-31T00:44:51.833Z,19.7
2018-05-31T00:45:53.844Z,19.8
2018-05-31T00:46:56.139Z,19.8
2018-05-31T00:47:58.146Z,19.8
2018-05-31T00:49:00.147Z,19.7
2018-05-31T00:50:02.144Z,19.7
2018-05-31T00:51:04.150Z,19.7
2018-05-31T00:52:06.151Z,19.7
2018-05-31T00:53:08.144Z,19.7
2018-05-31T00:54:10.546Z,19.7
2018-05-31T00:55:12.546Z,19.7
2018-05-31T00:56:14.548Z,19.7
2018-05-31T00:57:16.554Z,19.6
2018-05-31T00:58:19.096Z,19.7
2018-05-31T00:59:21.107Z,19.6
2018-05-31T01:00:23.111Z,19.6
2018-05-31T01:01:25.396Z,19.7
2018-05-31T01:02:27.401Z,19.6
2018-05-31T01:03:29.399Z,19.6
2018-05-31T01:04:31.407Z,19.6
2018-05-31T01:05:33.407Z,19.5
2018-05-31T01:06:35.805Z,19.5
2018-05-31T01:07:37.798Z,19.5
2018-05-31T01:08:39.806Z,19.3
2018-05-31T01:09:41.811Z,19.2
2018-05-31T01:10:43.815Z,19.3
2018-05-31T01:11:45.827Z,19.2
2018-05-31T01:12:48.132Z,19.3
2018-05-31T01:13:50.130Z,19.3
2018-05-31T01:14:52.454Z,19.3
2018-05-31T01:15:54.844Z,19.4
2018-05-31T01:16:56.853Z,19.4
2018-05-31T01:17:59.241Z,19.5
2018-05-31T01:19:01.253Z,19.4
2018-05-31T01:20:03.244Z,19.4
2018-05-31T01:21:05.253Z,19.4
2018-05-31T01:22:07.550Z,19.3
2018-05-31T01:23:09.561Z,19.3
2018-05-31T01:24:11.570Z,19.3
2018-05-31T01:25:14.287Z,19.3
2018-05-31T01:26:17.044Z,19.4
2018-05-31T01:27:19.047Z,19.4
2018-05-31T01:28:21.042Z,19.3
2018-05-31T01:29:23.429Z,19.3
2018-05-31T01:30:25.436Z,19.3
2018-05-31T01:31:27.443Z,19.3
2018-05-31T01:32:29.437Z,19.3
2018-05-31T01:33:31.757Z,19.3
2018-05-31T01:34:33.761Z,19.4
2018-05-31T01:35:35.759Z,19.5
2018-05-31T01:36:38.062Z,19.5
2018-05-31T01:37:40.055Z,19.7
2018-05-31T01:38:42.444Z,19.7
2018-05-31T01:39:44.458Z,19.7
2018-05-31T01:40:46.464Z,19.6
2018-05-31T01:41:48.452Z,19.6
2018-05-31T01:42:50.456Z,19.6
2018-05-31T01:43:52.466Z,19.5
2018-05-31T01:44:54.467Z,19.6
2018-05-31T01:45:56.476Z,19.5
2018-05-31T01:46:58.490Z,19.3
2018-05-31T01:48:00.497Z,19.2
2018-05-31T01:49:02.797Z,19
2018-05-31T01:50:04.795Z,18.9
2018-05-31T01:51:07.190Z,19
2018-05-31T01:52:09.190Z,18.8
2018-05-31T01:53:11.202Z,18.9
2018-05-31T01:54:13.489Z,18.9
2018-05-31T01:55:15.498Z,18.9
2018-05-31T01:56:17.492Z,18.9
2018-05-31T01:57:19.493Z,18.9
2018-05-31T01:58:21.505Z,19
2018-05-31T01:59:23.503Z,18.9
2018-05-31T02:00:26.100Z,19
2018-05-31T02:01:28.112Z,18.9
2018-05-31T02:02:30.124Z,18.9
2018-05-31T02:03:32.131Z,18.9
2018-05-31T02:04:34.134Z,19
2018-05-31T02:05:36.141Z,18.8
2018-05-31T02:06:38.139Z,18.8
2018-05-31T02:07:40.126Z,18.8
2018-05-31T02:08:42.133Z,18.9
2018-05-31T02:09:44.140Z,18.9
2018-05-31T02:10:46.148Z,18.9
2018-05-31T02:11:48.147Z,18.9
2018-05-31T02:12:50.415Z,18.8
2018-05-31T02:13:52.410Z,18.7
2018-05-31T02:14:54.407Z,18.7
2018-05-31T02:15:56.805Z,18.6
2018-05-31T02:16:59.189Z,18.6
2018-05-31T02:18:01.194Z,18.6
2018-05-31T02:19:03.477Z,18.6
2018-05-31T02:20:05.478Z,18.6
2018-05-31T02:21:07.821Z,18.6
2018-05-31T02:22:09.809Z,18.4
2018-05-31T02:23:11.817Z,18.4
2018-05-31T02:24:14.125Z,18.4
2018-05-31T02:25:16.127Z,18.4
2018-05-31T02:26:18.133Z,18.5
2018-05-31T02:27:20.132Z,18.5
2018-05-31T02:28:22.135Z,18.5
2018-05-31T02:29:24.146Z,18.5
2018-05-31T02:30:26.433Z,18.5
2018-05-31T02:31:28.744Z,18.5
2018-05-31T02:32:30.752Z,18.5
2018-05-31T02:33:33.328Z,18.4
2018-05-31T02:34:35.333Z,18.4
2018-05-31T02:35:37.329Z,18.4
2018-05-31T02:36:39.326Z,18.1
2018-05-31T02:37:41.335Z,18.1
2018-05-31T02:38:43.328Z,18
2018-05-31T02:39:45.341Z,18
2018-05-31T02:40:47.717Z,18
2018-05-31T02:41:50.099Z,17.9
2018-05-31T02:42:52.112Z,17.9
2018-05-31T02:43:54.111Z,17.9
2018-05-31T02:44:56.115Z,18
2018-05-31T02:45:58.111Z,18
2018-05-31T02:47:00.107Z,18
2018-05-31T02:48:02.428Z,18
2018-05-31T02:49:04.433Z,18
2018-05-31T02:50:06.431Z,17.9
2018-05-31T02:51:08.811Z,17.9
2018-05-31T02:52:10.822Z,17.9
2018-05-31T02:53:12.828Z,17.8
2018-05-31T02:54:14.828Z,17.7
2018-05-31T02:55:16.826Z,17.7
2018-05-31T02:56:18.826Z,17.7
2018-05-31T02:57:20.829Z,17.6
2018-05-31T02:58:22.837Z,17.6
2018-05-31T02:59:24.835Z,17.6
2018-05-31T03:00:26.844Z,17.6
2018-05-31T03:01:28.843Z,17.7
2018-05-31T03:02:30.837Z,17.7
2018-05-31T03:03:32.838Z,17.6
2018-05-31T03:04:34.847Z,17.6
2018-05-31T03:05:37.233Z,17.6
2018-05-31T03:06:39.228Z,17.5
2018-05-31T03:07:41.245Z,17.5
2018-05-31T03:08:43.529Z,17.5
2018-05-31T03:09:45.531Z,17.5
2018-05-31T03:10:47.913Z,17.4
2018-05-31T03:11:50.814Z,17.4
2018-05-31T03:12:53.203Z,17.4
2018-05-31T03:13:55.574Z,17.4
2018-05-31T03:14:57.585Z,17.3
2018-05-31T03:15:59.581Z,17.4
2018-05-31T03:17:01.588Z,17.4
2018-05-31T03:18:03.589Z,17.3
2018-05-31T03:19:05.884Z,17.4
2018-05-31T03:20:07.891Z,17.3
2018-05-31T03:21:10.169Z,17.3
2018-05-31T03:22:12.177Z,17.3
2018-05-31T03:23:14.183Z,17.3
2018-05-31T03:24:16.182Z,17.4
2018-05-31T03:25:18.180Z,17.4
2018-05-31T03:26:20.181Z,17.4
2018-05-31T03:27:22.791Z,17.4
2018-05-31T03:28:24.787Z,17.5
2018-05-31T03:29:26.801Z,17.4
2018-05-31T03:30:29.476Z,17.3
2018-05-31T03:31:31.865Z,17.3
2018-05-31T03:32:33.872Z,17.3
2018-05-31T03:33:36.166Z,17.2
2018-05-31T03:34:38.169Z,17.3
2018-05-31T03:35:40.159Z,17.3
2018-05-31T03:36:42.172Z,17.3
2018-05-31T03:37:44.166Z,17.3
2018-05-31T03:38:46.839Z,17.4
2018-05-31T03:39:48.840Z,17.3
2018-05-31T03:40:50.840Z,17.5
2018-05-31T03:41:53.230Z,17.4
2018-05-31T03:42:55.230Z,17.4
2018-05-31T03:43:57.234Z,17.4
2018-05-31T03:44:59.246Z,17.3
2018-05-31T03:46:01.243Z,17.3
2018-05-31T03:47:03.242Z,17.3
2018-05-31T03:48:05.237Z,17.3
2018-05-31T03:49:07.962Z,17.3
2018-05-31T03:50:10.268Z,17.4
2018-05-31T03:51:12.268Z,17.5
2018-05-31T03:52:14.262Z,17.5
2018-05-31T03:53:16.264Z,17.6
2018-05-31T03:54:18.257Z,17.6
2018-05-31T03:55:20.265Z,17.7
2018-05-31T03:56:22.269Z,17.7
2018-05-31T03:57:24.269Z,17.6
2018-05-31T03:58:26.281Z,17.6
2018-05-31T03:59:28.292Z,17.6
2018-05-31T04:00:30.283Z,17.6
2018-05-31T04:01:32.286Z,17.5
2018-05-31T04:02:34.286Z,17.5
2018-05-31T04:03:36.294Z,17.6
2018-05-31T04:04:38.297Z,17.5
2018-05-31T04:05:40.621Z,17.5
2018-05-31T04:06:42.917Z,17.5
2018-05-31T04:07:45.203Z,17.5
2018-05-31T04:08:47.495Z,17.5
2018-05-31T04:09:50.192Z,17.6
2018-05-31T04:10:52.186Z,17.6
2018-05-31T04:11:54.193Z,17.6
2018-05-31T04:12:56.523Z,17.6
2018-05-31T04:13:58.524Z,17.6
2018-05-31T04:15:00.514Z,17.7
2018-05-31T04:16:02.515Z,17.7
2018-05-31T04:17:04.512Z,17.7
2018-05-31T04:18:06.512Z,17.7
2018-05-31T04:19:08.818Z,17.8
2018-05-31T04:20:10.827Z,17.8
2018-05-31T04:21:13.154Z,17.8
2018-05-31T04:22:15.161Z,17.8
2018-05-31T04:23:17.150Z,17.8
2018-05-31T04:24:19.151Z,17.9
2018-05-31T04:25:21.159Z,17.9
2018-05-31T04:26:23.465Z,17.9
2018-05-31T04:27:25.473Z,17.9
2018-05-31T04:28:27.483Z,17.9
2018-05-31T04:29:29.472Z,17.9
2018-05-31T04:30:31.773Z,17.9
2018-05-31T04:31:33.776Z,17.9
2018-05-31T04:32:36.163Z,17.9
2018-05-31T04:33:38.889Z,17.9
2018-05-31T04:34:40.878Z,17.9
2018-05-31T04:35:43.258Z,18
2018-05-31T04:36:45.583Z,18
2018-05-31T04:37:47.571Z,18
2018-05-31T04:38:49.591Z,18
2018-05-31T04:39:51.880Z,18.1
2018-05-31T04:40:54.577Z,18.2
2018-05-31T04:41:56.577Z,18.5
2018-05-31T04:42:58.580Z,18.5
2018-05-31T04:44:00.574Z,18.4
2018-05-31T04:45:02.577Z,18.6
2018-05-31T04:46:04.596Z,18.7
2018-05-31T04:47:06.595Z,18.8
2018-05-31T04:48:08.603Z,18.8
2018-05-31T04:49:11.229Z,18.8
2018-05-31T04:50:13.613Z,18.8
2018-05-31T04:51:15.623Z,18.9
2018-05-31T04:52:17.614Z,18.9
2018-05-31T04:53:19.627Z,18.9
2018-05-31T04:54:22.364Z,19
2018-05-31T04:55:25.528Z,19.1
2018-05-31T04:56:27.527Z,19.1
2018-05-31T04:57:29.525Z,19.2
2018-05-31T04:58:31.530Z,19.3
2018-05-31T04:59:33.539Z,19.3
2018-05-31T05:00:35.830Z,19.4
2018-05-31T05:01:37.834Z,19.5
2018-05-31T05:02:39.839Z,19.5
2018-05-31T05:03:42.130Z,19.6
2018-05-31T05:04:44.136Z,19.6
2018-05-31T05:05:46.147Z,19.8
2018-05-31T05:06:48.143Z,19.8
2018-05-31T05:07:50.536Z,20
2018-05-31T05:08:52.533Z,20
2018-05-31T05:09:54.546Z,20
2018-05-31T05:10:56.549Z,20
2018-05-31T05:11:58.549Z,20.1
2018-05-31T05:13:00.557Z,20.1
2018-05-31T05:14:02.559Z,20.1
2018-05-31T05:15:04.553Z,20.1
2018-05-31T05:16:06.564Z,20.2
2018-05-31T05:17:08.571Z,20.2
2018-05-31T05:18:10.579Z,20.3
2018-05-31T05:19:12.574Z,20.4
2018-05-31T05:20:14.575Z,20.4
2018-05-31T05:21:16.577Z,20.5
2018-05-31T05:22:18.577Z,20.5
2018-05-31T05:23:20.587Z,20.5
2018-05-31T05:24:22.583Z,20.6
2018-05-31T05:25:24.589Z,20.6
2018-05-31T05:26:26.597Z,20.6
2018-05-31T05:27:28.587Z,20.6
2018-05-31T05:28:30.597Z,20.7
2018-05-31T05:29:32.597Z,20.7
2018-05-31T05:30:34.895Z,20.7
2018-05-31T05:31:37.280Z,20.8
2018-05-31T05:32:39.279Z,20.8
2018-05-31T05:33:41.296Z,20.8
2018-05-31T05:34:43.300Z,20.8
2018-05-31T05:35:45.304Z,20.8
2018-05-31T05:36:47.314Z,20.9
2018-05-31T05:37:49.323Z,20.8
2018-05-31T05:38:51.335Z,20.8
2018-05-31T05:39:53.720Z,20.8
2018-05-31T05:40:56.052Z,20.8
2018-05-31T05:41:58.093Z,20.7
2018-05-31T05:43:00.090Z,20.8
2018-05-31T05:44:02.485Z,20.7
2018-05-31T05:45:04.791Z,20.8
2018-05-31T05:46:06.793Z,20.8
2018-05-31T05:47:08.815Z,20.8
2018-05-31T05:48:10.808Z,20.9
2018-05-31T05:49:12.824Z,21
2018-05-31T05:50:14.921Z,21.1
2018-05-31T05:51:16.829Z,21.1
2018-05-31T05:52:18.856Z,21.1
2018-05-31T05:53:20.860Z,21.2
2018-05-31T05:54:22.873Z,21.3
2018-05-31T05:55:24.885Z,21.3
2018-05-31T05:56:26.932Z,21.4
2018-05-31T05:57:29.206Z,21.4
2018-05-31T05:58:31.215Z,21.5
2018-05-31T05:59:33.222Z,21.5
2018-05-31T06:00:35.231Z,21.6
2018-05-31T06:01:37.530Z,21.6
2018-05-31T06:02:39.549Z,21.7
2018-05-31T06:03:41.852Z,21.7
2018-05-31T06:04:43.870Z,21.8
2018-05-31T06:05:45.877Z,21.9
2018-05-31T06:06:47.895Z,21.9
2018-05-31T06:07:49.901Z,21.9
2018-05-31T06:08:52.212Z,22
2018-05-31T06:09:54.253Z,22
2018-05-31T06:10:56.617Z,22
2018-05-31T06:11:58.624Z,22
2018-05-31T06:13:00.637Z,22
2018-05-31T06:14:02.646Z,22.1
2018-05-31T06:15:04.653Z,22.2
2018-05-31T06:16:06.970Z,22.3
2018-05-31T06:17:08.984Z,22.3
2018-05-31T06:18:11.373Z,22.4
2018-05-31T06:19:13.384Z,22.4
2018-05-31T06:20:15.393Z,22.5
2018-05-31T06:21:17.412Z,22.5
2018-05-31T06:22:19.427Z,22.5
2018-05-31T06:23:21.430Z,22.6
2018-05-31T06:24:23.748Z,22.6
2018-05-31T06:25:25.756Z,22.6
2018-05-31T06:26:27.878Z,22.7
2018-05-31T06:27:29.773Z,22.7
2018-05-31T06:28:32.076Z,22.7
2018-05-31T06:29:34.089Z,22.8
2018-05-31T06:30:36.087Z,22.8
2018-05-31T06:31:38.861Z,22.9
2018-05-31T06:32:41.187Z,22.9
2018-05-31T06:33:43.505Z,23
2018-05-31T06:34:45.523Z,23
2018-05-31T06:35:47.807Z,23.1
2018-05-31T06:36:49.815Z,23.1
2018-05-31T06:37:51.813Z,23.1
2018-05-31T06:38:53.821Z,23.1
2018-05-31T06:39:55.823Z,23.2
2018-05-31T06:40:57.819Z,23.2
2018-05-31T06:41:59.843Z,23.3
2018-05-31T06:43:02.252Z,23.4
2018-05-31T06:44:04.259Z,23.3
2018-05-31T06:45:06.268Z,23.3
2018-05-31T06:46:08.270Z,23.2
2018-05-31T06:47:10.284Z,23.3
2018-05-31T06:48:12.603Z,23.3
2018-05-31T06:49:14.609Z,23.4
2018-05-31T06:50:16.625Z,23.5
2018-05-31T06:51:18.622Z,23.5
2018-05-31T06:52:21.029Z,23.6
2018-05-31T06:53:23.416Z,23.7
2018-05-31T06:54:25.543Z,23.8
2018-05-31T06:55:27.720Z,23.8
2018-05-31T06:56:29.733Z,23.8
2018-05-31T06:57:31.738Z,23.8
2018-05-31T06:58:33.759Z,23.9
2018-05-31T06:59:35.766Z,23.9
2018-05-31T07:00:37.774Z,23.9
2018-05-31T07:01:39.784Z,24
2018-05-31T07:02:41.795Z,24
2018-05-31T07:03:43.795Z,24
2018-05-31T07:04:45.812Z,24.1
2018-05-31T07:05:48.102Z,24.1
2018-05-31T07:06:50.406Z,24.1
2018-05-31T07:07:52.402Z,24.1
2018-05-31T07:08:54.426Z,24.2
2018-05-31T07:09:56.426Z,24.3
2018-05-31T07:10:58.423Z,24.3
2018-05-31T07:12:00.433Z,24.4
2018-05-31T07:13:02.459Z,24.5
2018-05-31T07:14:04.460Z,24.5
2018-05-31T07:15:06.475Z,24.5
2018-05-31T07:16:08.775Z,24.5
2018-05-31T07:17:10.783Z,24.5
2018-05-31T07:18:13.074Z,24.5
2018-05-31T07:19:15.089Z,24.5
2018-05-31T07:20:17.385Z,24.6
2018-05-31T07:21:20.052Z,24.6
2018-05-31T07:22:22.445Z,24.6
2018-05-31T07:23:24.455Z,24.7
2018-05-31T07:24:26.461Z,24.7
2018-05-31T07:25:28.469Z,24.8
2018-05-31T07:26:30.482Z,24.8
2018-05-31T07:27:33.069Z,24.8
2018-05-31T07:28:35.078Z,24.9
2018-05-31T07:29:37.077Z,25
2018-05-31T07:30:39.095Z,25
2018-05-31T07:31:41.496Z,25
2018-05-31T07:32:43.799Z,25
2018-05-31T07:33:45.808Z,25.1
2018-05-31T07:34:47.815Z,25.1
2018-05-31T07:35:49.826Z,25.2
2018-05-31T07:36:51.821Z,25.2
2018-05-31T07:37:53.837Z,25.3
2018-05-31T07:38:56.238Z,25.2
2018-05-31T07:39:58.620Z,25.3
2018-05-31T07:41:00.920Z,25.2
2018-05-31T07:42:02.932Z,25.2
2018-05-31T07:43:04.949Z,25.3
2018-05-31T07:44:06.946Z,25.4
2018-05-31T07:45:08.962Z,25.4
2018-05-31T07:46:10.976Z,25.5
2018-05-31T07:47:12.985Z,25.6
2018-05-31T07:48:15.378Z,25.5
2018-05-31T07:49:17.395Z,25.6
2018-05-31T07:50:19.694Z,25.6
2018-05-31T07:51:21.832Z,25.7
2018-05-31T07:52:23.999Z,25.6
2018-05-31T07:53:26.011Z,25.7
2018-05-31T07:54:28.023Z,25.7
2018-05-31T07:55:30.048Z,25.8
2018-05-31T07:56:32.336Z,25.9
2018-05-31T07:57:34.345Z,25.9
2018-05-31T07:58:36.745Z,26
2018-05-31T07:59:39.032Z,26
2018-05-31T08:00:41.054Z,26
2018-05-31T08:01:43.350Z,26.1
2018-05-31T08:02:45.372Z,26.2
2018-05-31T08:03:47.384Z,26.1
2018-05-31T08:04:49.379Z,26
2018-05-31T08:05:51.729Z,26.1
2018-05-31T08:06:54.093Z,26.1
2018-05-31T08:07:56.101Z,26.2
2018-05-31T08:08:58.433Z,26.3
2018-05-31T08:10:00.423Z,26.3
2018-05-31T08:11:02.729Z,26.3
2018-05-31T08:12:04.736Z,26.4
2018-05-31T08:13:06.747Z,26.4
2018-05-31T08:14:08.759Z,26.4
2018-05-31T08:15:11.355Z,26.3
2018-05-31T08:16:13.363Z,26.3
2018-05-31T08:17:15.384Z,26.4
2018-05-31T08:18:17.390Z,26.4
2018-05-31T08:19:19.420Z,26.4
2018-05-31T08:20:21.424Z,26.5
2018-05-31T08:21:23.824Z,26.6
2018-05-31T08:22:25.840Z,26.8
2018-05-31T08:23:27.851Z,26.7
2018-05-31T08:24:29.858Z,26.7
2018-05-31T08:25:31.871Z,26.8
2018-05-31T08:26:34.177Z,26.9
2018-05-31T08:27:36.478Z,27
2018-05-31T08:28:38.485Z,27.1
2018-05-31T08:29:40.490Z,27.1
2018-05-31T08:30:42.514Z,27.2
2018-05-31T08:31:44.653Z,27.3
2018-05-31T08:32:47.012Z,27.2
2018-05-31T08:33:49.019Z,27.4
2018-05-31T08:34:51.028Z,27.5
2018-05-31T08:35:53.051Z,27.5
2018-05-31T08:36:55.058Z,27.6
2018-05-31T08:37:57.067Z,27.6
2018-05-31T08:38:59.095Z,27.5
2018-05-31T08:40:01.392Z,27.7
2018-05-31T08:41:03.448Z,27.9
2018-05-31T08:42:05.490Z,27.9
2018-05-31T08:43:07.539Z,28
2018-05-31T08:44:09.616Z,28.1
2018-05-31T08:45:11.673Z,28.3
2018-05-31T08:46:13.735Z,28.2
2018-05-31T08:47:16.075Z,28.4
2018-05-31T08:48:18.155Z,28.3
2018-05-31T08:49:20.227Z,28.4
2018-05-31T08:50:22.277Z,28.5
2018-05-31T08:51:24.326Z,28.7
2018-05-31T08:52:26.393Z,28.7
2018-05-31T08:53:28.447Z,28.8
2018-05-31T08:54:30.512Z,28.3
2018-05-31T08:55:32.971Z,28.4
2018-05-31T08:56:35.003Z,28.6
2018-05-31T08:57:37.065Z,28.8
2018-05-31T08:58:39.115Z,28.8
2018-05-31T08:59:41.186Z,29
2018-05-31T09:00:43.243Z,29.2
2018-05-31T09:01:45.576Z,29.1
2018-05-31T09:02:47.645Z,29
2018-05-31T09:03:49.696Z,29.1
2018-05-31T09:04:52.134Z,29.3
2018-05-31T09:05:54.482Z,29.4
2018-05-31T09:06:56.828Z,29.3
2018-05-31T09:07:58.880Z,29.5
2018-05-31T09:09:00.955Z,29.3
2018-05-31T09:10:03.011Z,29.6
2018-05-31T09:11:05.064Z,29.4
2018-05-31T09:12:07.121Z,29.3
2018-05-31T09:13:09.172Z,29.5
2018-05-31T09:14:11.232Z,29.4
2018-05-31T09:15:13.714Z,29.6
2018-05-31T09:16:15.992Z,29.6
2018-05-31T09:17:18.376Z,29.7
2018-05-31T09:18:20.420Z,29.8
2018-05-31T09:19:22.477Z,29.9
2018-05-31T09:20:24.537Z,29.9
2018-05-31T09:21:26.589Z,29.4
2018-05-31T09:22:28.655Z,29.8
2018-05-31T09:23:30.706Z,29.6
2018-05-31T09:24:32.775Z,29.7
2018-05-31T09:25:34.827Z,29.9
2018-05-31T09:26:37.173Z,29.9
2018-05-31T09:27:39.229Z,30.1
2018-05-31T09:28:41.283Z,29.9
2018-05-31T09:29:43.648Z,30.1
2018-05-31T09:30:45.699Z,30.1
2018-05-31T09:31:48.053Z,30
2018-05-31T09:32:50.498Z,29.8
2018-05-31T09:33:52.560Z,29.9
2018-05-31T09:34:54.624Z,30
2018-05-31T09:35:56.676Z,30.2
2018-05-31T09:36:59.014Z,30.6
2018-05-31T09:38:01.374Z,30.5
2018-05-31T09:39:03.762Z,30.2
2018-05-31T09:40:05.872Z,30.6
2018-05-31T09:41:07.994Z,30.8
2018-05-31T09:42:09.988Z,30.8
2018-05-31T09:43:12.332Z,30.6
2018-05-31T09:44:14.399Z,30.7
2018-05-31T09:45:16.468Z,30.7
2018-05-31T09:46:18.917Z,30.6
2018-05-31T09:47:20.976Z,31
2018-05-31T09:48:23.427Z,31.1
2018-05-31T09:49:25.837Z,30.9
2018-05-31T09:50:28.746Z,31.3
2018-05-31T09:51:30.818Z,31.1
2018-05-31T09:52:33.222Z,31.1
2018-05-31T09:53:35.288Z,30.7
2018-05-31T09:54:37.348Z,30.9
2018-05-31T09:55:40.384Z,30.9
2018-05-31T09:56:42.804Z,30.9
2018-05-31T09:57:44.859Z,31
2018-05-31T09:58:47.843Z,31.5
2018-05-31T09:59:49.932Z,31.8
2018-05-31T10:00:52.295Z,31.1
2018-05-31T10:01:54.378Z,31.3
2018-05-31T10:02:56.804Z,31.3
2018-05-31T10:03:58.875Z,31.9
2018-05-31T10:05:00.941Z,32.2
2018-05-31T10:06:02.997Z,31.6
2018-05-31T10:07:05.070Z,31.2
2018-05-31T10:08:07.129Z,31.3
2018-05-31T10:09:09.191Z,31.5
2018-05-31T10:10:11.259Z,31.1
2018-05-31T10:11:13.317Z,31.3
2018-05-31T10:12:15.669Z,31.6
2018-05-31T10:13:18.042Z,31.9
2018-05-31T10:14:20.243Z,31.6
2018-05-31T10:15:22.303Z,31.6
2018-05-31T10:16:24.452Z,31.5
2018-05-31T10:17:26.535Z,31.7
2018-05-31T10:18:28.664Z,31.6
2018-05-31T10:19:30.742Z,31.6
2018-05-31T10:20:32.849Z,31.9
2018-05-31T10:21:35.466Z,31.8
2018-05-31T10:22:38.109Z,31.2
2018-05-31T10:23:40.343Z,30.8
2018-05-31T10:24:42.406Z,30.4
2018-05-31T10:25:44.528Z,30.4
2018-05-31T10:26:46.932Z,30.4
2018-05-31T10:27:48.994Z,30.4
2018-05-31T10:28:51.733Z,30.8
2018-05-31T10:29:53.790Z,31.2
2018-05-31T10:30:55.851Z,31.1
2018-05-31T10:31:57.929Z,31.3
2018-05-31T10:33:00.375Z,31.3
2018-05-31T10:34:02.451Z,31.5
2018-05-31T10:35:04.514Z,32
2018-05-31T10:36:06.963Z,31.9
2018-05-31T10:37:09.031Z,32
2018-05-31T10:38:11.100Z,31.9
2018-05-31T10:39:13.459Z,31.8
2018-05-31T10:40:15.920Z,32.1
2018-05-31T10:41:17.966Z,31.9
2018-05-31T10:42:20.043Z,32
2018-05-31T10:43:22.836Z,32.3
2018-05-31T10:44:24.892Z,32.1
2018-05-31T10:45:27.927Z,32
2018-05-31T10:46:31.379Z,32.2
2018-05-31T10:47:35.464Z,32.1
2018-05-31T10:48:37.548Z,32.1
2018-05-31T10:49:39.612Z,32.3
2018-05-31T10:50:41.725Z,32.3
2018-05-31T10:51:43.748Z,32.6
2018-05-31T10:52:46.128Z,32.7
2018-05-31T10:53:48.202Z,32.8
2018-05-31T10:54:50.454Z,32.7
2018-05-31T10:55:52.558Z,32.9
2018-05-31T10:56:54.620Z,33.1
2018-05-31T10:57:56.728Z,32.5
2018-05-31T10:58:58.800Z,32.7
2018-05-31T11:00:01.150Z,32.4
2018-05-31T11:01:03.221Z,32.6
2018-05-31T11:02:05.285Z,32.6
2018-05-31T11:03:07.609Z,32.1
2018-05-31T11:04:09.638Z,31.8
2018-05-31T11:05:11.658Z,31.5
2018-05-31T11:06:13.684Z,31.2
2018-05-31T11:07:15.705Z,31
2018-05-31T11:08:17.746Z,31
2018-05-31T11:09:19.773Z,31.5
2018-05-31T11:10:21.802Z,31.7
2018-05-31T11:11:23.838Z,31.7
2018-05-31T11:12:25.867Z,31.8
2018-05-31T11:13:27.889Z,31.9
2018-05-31T11:14:29.912Z,32.3
2018-05-31T11:15:31.932Z,32.5
2018-05-31T11:16:34.347Z,32.4
2018-05-31T11:17:36.372Z,32
2018-05-31T11:18:38.400Z,31.8
2018-05-31T11:19:40.426Z,31.9
2018-05-31T11:20:42.459Z,31.8
2018-05-31T11:21:44.914Z,31.3
2018-05-31T11:22:46.901Z,31.2
2018-05-31T11:23:49.314Z,31.1
2018-05-31T11:24:51.336Z,30.7
2018-05-31T11:25:53.373Z,31
2018-05-31T11:26:55.393Z,30.7
2018-05-31T11:27:57.423Z,31.1
2018-05-31T11:28:59.474Z,31.5
2018-05-31T11:30:01.483Z,31.5
2018-05-31T11:31:03.521Z,31.2
2018-05-31T11:32:05.557Z,31.4
2018-05-31T11:33:08.170Z,31.2
2018-05-31T11:34:10.201Z,31
2018-05-31T11:35:12.220Z,31
2018-05-31T11:36:14.256Z,30.8
2018-05-31T11:37:16.276Z,30.7
2018-05-31T11:38:18.296Z,30.7
2018-05-31T11:39:20.615Z,30.5
2018-05-31T11:40:23.304Z,30.3
2018-05-31T11:41:25.608Z,30.4
2018-05-31T11:42:28.199Z,30.8
2018-05-31T11:43:30.515Z,30.8
2018-05-31T11:44:32.545Z,31.2
2018-05-31T11:45:34.565Z,31.3
2018-05-31T11:46:36.590Z,31.3
2018-05-31T11:47:38.602Z,31.3
2018-05-31T11:48:40.622Z,31.6
2018-05-31T11:49:42.650Z,31.3
2018-05-31T11:50:44.667Z,31.1
2018-05-31T11:51:47.073Z,31.5
2018-05-31T11:52:49.090Z,31.9
2018-05-31T11:53:51.117Z,32.3
2018-05-31T11:54:53.132Z,32.3
2018-05-31T11:55:55.155Z,32.1
2018-05-31T11:56:57.195Z,32
2018-05-31T11:57:59.224Z,32.2
2018-05-31T11:59:01.541Z,32.3
2018-05-31T12:00:03.559Z,32.4
2018-05-31T12:01:05.975Z,32.4
2018-05-31T12:02:07.989Z,32.7
2018-05-31T12:03:10.019Z,32.9
2018-05-31T12:04:12.049Z,32.5
2018-05-31T12:05:14.071Z,32.5
2018-05-31T12:06:16.100Z,32.9
2018-05-31T12:07:18.115Z,33
2018-05-31T12:08:20.183Z,33.1
2018-05-31T12:09:22.165Z,32.5
2018-05-31T12:10:24.184Z,32.8
2018-05-31T12:11:26.205Z,32.5
2018-05-31T12:12:28.523Z,32.5
2018-05-31T12:13:30.933Z,32.3
2018-05-31T12:14:32.950Z,32.3
2018-05-31T12:15:34.979Z,32.4
2018-05-31T12:16:37.006Z,31.9
2018-05-31T12:17:39.111Z,32
2018-05-31T12:18:41.051Z,32.2
2018-05-31T12:19:43.074Z,32.2
2018-05-31T12:20:45.082Z,32.7
2018-05-31T12:21:47.112Z,32.8
2018-05-31T12:22:49.410Z,32.6
2018-05-31T12:23:51.440Z,32.5
2018-05-31T12:24:53.468Z,32.2
2018-05-31T12:25:55.512Z,32.1
2018-05-31T12:26:57.526Z,32.3
2018-05-31T12:27:59.926Z,32.5
2018-05-31T12:29:01.955Z,32.7
2018-05-31T12:30:03.984Z,33
2018-05-31T12:31:06.303Z,32.5
2018-05-31T12:32:08.359Z,32.3
2018-05-31T12:33:10.628Z,32
2018-05-31T12:34:12.652Z,31.7
2018-05-31T12:35:14.963Z,31.4
2018-05-31T12:36:16.978Z,31.5
2018-05-31T12:37:19.014Z,31.8
2018-05-31T12:38:21.036Z,32.8
2018-05-31T12:39:23.058Z,32.3
2018-05-31T12:40:25.090Z,32.5
2018-05-31T12:41:27.115Z,32.3
2018-05-31T12:42:29.141Z,32.6
2018-05-31T12:43:31.168Z,32.5
2018-05-31T12:44:33.182Z,32.5
2018-05-31T12:45:35.219Z,33
2018-05-31T12:46:37.239Z,33.1
2018-05-31T12:47:39.653Z,33
2018-05-31T12:48:42.055Z,33.2
2018-05-31T12:49:44.081Z,33.2
2018-05-31T12:50:46.100Z,32.9
2018-05-31T12:51:48.120Z,32.6
2018-05-31T12:52:50.145Z,32.3
2018-05-31T12:53:52.561Z,32.1
2018-05-31T12:54:54.867Z,32.4
2018-05-31T12:55:56.886Z,32
2018-05-31T12:56:58.910Z,32
2018-05-31T12:58:00.935Z,32.2
2018-05-31T12:59:02.961Z,32.4
2018-05-31T13:00:05.277Z,32.6
2018-05-31T13:01:07.289Z,32.8
2018-05-31T13:02:09.320Z,33
2018-05-31T13:03:11.657Z,33.1
2018-05-31T13:04:13.679Z,32.9
2018-05-31T13:05:15.706Z,32.5
2018-05-31T13:06:17.737Z,32.2
2018-05-31T13:07:19.758Z,32.5
2018-05-31T13:08:21.784Z,32.5
2018-05-31T13:09:23.808Z,32.6
2018-05-31T13:10:25.846Z,32.8
2018-05-31T13:11:27.869Z,32.8
2018-05-31T13:12:29.891Z,32.8
2018-05-31T13:13:32.283Z,33
2018-05-31T13:14:34.613Z,33.1
2018-05-31T13:15:36.935Z,33.1
2018-05-31T13:16:39.242Z,33.5
2018-05-31T13:17:41.271Z,33.4
2018-05-31T13:18:43.307Z,33.2
2018-05-31T13:19:45.626Z,33
2018-05-31T13:20:47.646Z,33.3
2018-05-31T13:21:49.674Z,33.9
2018-05-31T13:22:51.705Z,34.1
2018-05-31T13:23:53.721Z,33.8
2018-05-31T13:24:55.759Z,33.3
2018-05-31T13:25:57.780Z,33.3
2018-05-31T13:27:00.082Z,33.5
2018-05-31T13:28:02.111Z,33.4
2018-05-31T13:29:04.140Z,33.1
2018-05-31T13:30:06.172Z,33.3
2018-05-31T13:31:08.193Z,33.4
2018-05-31T13:32:10.608Z,34
2018-05-31T13:33:12.638Z,33.5
2018-05-31T13:34:14.671Z,34
2018-05-31T13:35:16.708Z,33.6
2018-05-31T13:36:18.728Z,33.6
2018-05-31T13:37:20.774Z,33.4
2018-05-31T13:38:22.789Z,33.2
2018-05-31T13:39:25.118Z,32.9
2018-05-31T13:40:27.167Z,33
2018-05-31T13:41:29.195Z,33
2018-05-31T13:42:31.238Z,32.7
2018-05-31T13:43:33.277Z,32.7
2018-05-31T13:44:35.311Z,32.9
2018-05-31T13:45:37.344Z,33.2
2018-05-31T13:46:39.695Z,33.3
2018-05-31T13:47:41.721Z,33.6
2018-05-31T13:48:43.744Z,33.9
2018-05-31T13:49:45.772Z,33.7
2018-05-31T13:50:47.817Z,33.8
2018-05-31T13:51:49.844Z,34